sensor_id;sensor_type;location;lat;lon;timestamp;pressure;altitude;pressure_sealevel;temperature;humidity
51617;BME280;37697;52.588;13.394;2022-08-19T00:00:13;100514.70;;;20.98;75.79
51617;BME280;37697;52.588;13.394;2022-08-19T00:05:17;100503.83;;;20.93;76.12
51617;BME280;37697;52.588;13.394;2022-08-19T00:10:20;100497.61;;;20.90;76.20
51617;BME280;37697;52.588;13.394;2022-08-19T00:15:22;100504.16;;;20.88;76.47
51617;BME280;37697;52.588;13.394;2022-08-19T00:20:23;100500.56;;;20.87;76.74
51617;BME280;37697;52.588;13.394;2022-08-19T00:25:24;100504.56;;;20.86;76.92
51617;BME280;37697;52.588;13.394;2022-08-19T00:30:25;100508.16;;;20.87;77.09
51617;BME280;37697;52.588;13.394;2022-08-19T00:35:27;100520.75;;;20.87;77.26
51617;BME280;37697;52.588;13.394;2022-08-19T00:40:28;100523.75;;;20.88;77.48
51617;BME280;37697;52.588;13.394;2022-08-19T00:45:30;100526.72;;;20.85;77.42
51617;BME280;37697;52.588;13.394;2022-08-19T00:50:33;100510.73;;;20.86;77.37
51617;BME280;37697;52.588;13.394;2022-08-19T00:55:37;100504.89;;;20.81;77.43
51617;BME280;37697;52.588;13.394;2022-08-19T01:00:39;100494.87;;;20.80;77.63
51617;BME280;37697;52.588;13.394;2022-08-19T01:05:42;100495.47;;;20.79;77.47
51617;BME280;37697;52.588;13.394;2022-08-19T01:10:50;100505.41;;;20.77;77.84
51617;BME280;37697;52.588;13.394;2022-08-19T01:15:58;100508.06;;;20.79;77.96
51617;BME280;37697;52.588;13.394;2022-08-19T01:21:05;100500.19;;;20.75;78.02
51617;BME280;37697;52.588;13.394;2022-08-19T01:26:11;100509.56;;;20.73;78.11
51617;BME280;37697;52.588;13.394;2022-08-19T01:31:19;100511.14;;;20.71;78.31
51617;BME280;37697;52.588;13.394;2022-08-19T01:36:29;100512.11;;;20.69;78.50
51617;BME280;37697;52.588;13.394;2022-08-19T01:41:28;100528.67;;;20.68;78.64
51617;BME280;37697;52.588;13.394;2022-08-19T01:46:30;100534.07;;;20.67;78.71
51617;BME280;37697;52.588;13.394;2022-08-19T01:51:32;100504.65;;;20.63;78.64
51617;BME280;37697;52.588;13.394;2022-08-19T01:56:33;100532.22;;;20.64;79.12
51617;BME280;37697;52.588;13.394;2022-08-19T02:01:34;100531.22;;;20.63;79.05
51617;BME280;37697;52.588;13.394;2022-08-19T02:06:35;100543.59;;;20.62;79.46
51617;BME280;37697;52.588;13.394;2022-08-19T02:11:37;100524.60;;;20.61;79.50
51617;BME280;37697;52.588;13.394;2022-08-19T02:16:39;100511.10;;;20.57;79.49
51617;BME280;37697;52.588;13.394;2022-08-19T02:21:40;100463.30;;;20.53;79.62
51617;BME280;37697;52.588;13.394;2022-08-19T02:26:41;100466.42;;;20.48;79.94
51617;BME280;37697;52.588;13.394;2022-08-19T02:31:42;100425.22;;;20.44;80.12
51617;BME280;37697;52.588;13.394;2022-08-19T02:36:43;100418.56;;;20.39;80.24
51617;BME280;37697;52.588;13.394;2022-08-19T02:41:43;100421.11;;;20.35;80.34
51617;BME280;37697;52.588;13.394;2022-08-19T02:46:47;100412.22;;;20.29;80.44
51617;BME280;37697;52.588;13.394;2022-08-19T02:51:48;100417.56;;;20.24;80.63
51617;BME280;37697;52.588;13.394;2022-08-19T02:56:49;100435.23;;;20.19;80.79
51617;BME280;37697;52.588;13.394;2022-08-19T03:01:50;100422.45;;;20.18;81.01
51617;BME280;37697;52.588;13.394;2022-08-19T03:06:50;100423.80;;;20.14;81.16
51617;BME280;37697;52.588;13.394;2022-08-19T03:11:51;100435.95;;;20.12;81.20
51617;BME280;37697;52.588;13.394;2022-08-19T03:16:53;100438.63;;;20.05;81.06
51617;BME280;37697;52.588;13.394;2022-08-19T03:21:53;100438.52;;;19.98;81.56
51617;BME280;37697;52.588;13.394;2022-08-19T03:26:55;100439.92;;;19.98;81.84
51617;BME280;37697;52.588;13.394;2022-08-19T03:32:00;100431.25;;;19.93;81.87
51617;BME280;37697;52.588;13.394;2022-08-19T03:37:07;100418.73;;;19.97;81.93
51617;BME280;37697;52.588;13.394;2022-08-19T03:42:10;100412.97;;;19.99;82.16
51617;BME280;37697;52.588;13.394;2022-08-19T03:47:11;100414.71;;;19.94;81.84
51617;BME280;37697;52.588;13.394;2022-08-19T03:52:14;100415.59;;;19.88;82.43
51617;BME280;37697;52.588;13.394;2022-08-19T03:57:15;100428.72;;;19.84;82.82
51617;BME280;37697;52.588;13.394;2022-08-19T04:02:16;100428.48;;;19.83;82.95
51617;BME280;37697;52.588;13.394;2022-08-19T04:07:17;100426.29;;;19.83;82.99
51617;BME280;37697;52.588;13.394;2022-08-19T04:12:20;100411.72;;;19.83;83.17
51617;BME280;37697;52.588;13.394;2022-08-19T04:17:21;100406.96;;;19.84;83.09
51617;BME280;37697;52.588;13.394;2022-08-19T04:22:22;100415.97;;;19.87;83.19
51617;BME280;37697;52.588;13.394;2022-08-19T04:27:24;100419.59;;;19.87;83.18
51617;BME280;37697;52.588;13.394;2022-08-19T04:32:24;100433.56;;;19.87;83.22
51617;BME280;37697;52.588;13.394;2022-08-19T04:37:26;100438.98;;;19.90;83.35
51617;BME280;37697;52.588;13.394;2022-08-19T04:42:27;100442.97;;;19.89;83.31
51617;BME280;37697;52.588;13.394;2022-08-19T04:47:43;100431.19;;;19.89;83.43
51617;BME280;37697;52.588;13.394;2022-08-19T04:52:44;100441.94;;;19.87;83.60
51617;BME280;37697;52.588;13.394;2022-08-19T04:57:45;100426.72;;;19.85;83.61
51617;BME280;37697;52.588;13.394;2022-08-19T05:02:46;100419.16;;;19.85;83.84
51617;BME280;37697;52.588;13.394;2022-08-19T05:07:46;100428.11;;;19.85;83.88
51617;BME280;37697;52.588;13.394;2022-08-19T05:12:47;100434.36;;;19.88;84.00
51617;BME280;37697;52.588;13.394;2022-08-19T05:17:48;100430.82;;;19.91;84.04
51617;BME280;37697;52.588;13.394;2022-08-19T05:23:10;100423.58;;;20.00;84.21
51617;BME280;37697;52.588;13.394;2022-08-19T05:28:12;100418.52;;;20.09;84.03
51617;BME280;37697;52.588;13.394;2022-08-19T05:33:12;100409.69;;;20.20;83.82
51617;BME280;37697;52.588;13.394;2022-08-19T05:38:13;100398.73;;;20.35;83.81
51617;BME280;37697;52.588;13.394;2022-08-19T05:43:14;100391.16;;;20.52;83.86
51617;BME280;37697;52.588;13.394;2022-08-19T05:48:18;100392.87;;;20.74;83.73
51617;BME280;37697;52.588;13.394;2022-08-19T05:53:20;100391.72;;;20.95;83.57
51617;BME280;37697;52.588;13.394;2022-08-19T05:58:21;100399.18;;;21.01;83.10
51617;BME280;37697;52.588;13.394;2022-08-19T06:03:22;100402.81;;;21.05;83.06
51617;BME280;37697;52.588;13.394;2022-08-19T06:08:23;100404.73;;;21.14;83.03
51617;BME280;37697;52.588;13.394;2022-08-19T06:13:23;100401.06;;;21.27;83.03
51617;BME280;37697;52.588;13.394;2022-08-19T06:18:26;100405.55;;;21.35;82.73
51617;BME280;37697;52.588;13.394;2022-08-19T06:23:28;100421.98;;;21.40;82.78
51617;BME280;37697;52.588;13.394;2022-08-19T06:28:29;100423.41;;;21.44;82.70
51617;BME280;37697;52.588;13.394;2022-08-19T06:33:30;100418.89;;;21.49;82.70
51617;BME280;37697;52.588;13.394;2022-08-19T06:38:31;100419.30;;;21.48;82.49
51617;BME280;37697;52.588;13.394;2022-08-19T06:43:33;100412.33;;;21.51;82.72
51617;BME280;37697;52.588;13.394;2022-08-19T06:48:34;100414.84;;;21.64;82.61
51617;BME280;37697;52.588;13.394;2022-08-19T06:53:35;100418.70;;;21.72;82.54
51617;BME280;37697;52.588;13.394;2022-08-19T06:58:36;100435.77;;;21.77;82.19
51617;BME280;37697;52.588;13.394;2022-08-19T07:03:37;100434.61;;;21.82;82.36
51617;BME280;37697;52.588;13.394;2022-08-19T07:08:39;100448.81;;;21.83;82.03
51617;BME280;37697;52.588;13.394;2022-08-19T07:13:41;100456.65;;;21.83;82.04
51617;BME280;37697;52.588;13.394;2022-08-19T07:18:43;100455.66;;;21.85;82.20
51617;BME280;37697;52.588;13.394;2022-08-19T07:23:45;100468.47;;;21.86;82.04
51617;BME280;37697;52.588;13.394;2022-08-19T07:33:55;100455.55;;;21.99;82.01
51617;BME280;37697;52.588;13.394;2022-08-19T07:38:59;100456.98;;;22.02;82.04
51617;BME280;37697;52.588;13.394;2022-08-19T07:44:01;100463.63;;;22.07;82.21
51617;BME280;37697;52.588;13.394;2022-08-19T07:49:05;100471.88;;;22.10;82.29
51617;BME280;37697;52.588;13.394;2022-08-19T07:54:06;100481.94;;;22.18;82.59
51617;BME280;37697;52.588;13.394;2022-08-19T07:59:07;100482.79;;;22.22;82.75
51617;BME280;37697;52.588;13.394;2022-08-19T08:04:10;100484.80;;;22.25;82.63
51617;BME280;37697;52.588;13.394;2022-08-19T08:09:32;100482.20;;;22.26;82.44
51617;BME280;37697;52.588;13.394;2022-08-19T08:14:48;100489.66;;;22.28;82.32
51617;BME280;37697;52.588;13.394;2022-08-19T08:19:50;100496.67;;;22.28;82.03
51617;BME280;37697;52.588;13.394;2022-08-19T08:24:51;100501.95;;;22.37;82.00
51617;BME280;37697;52.588;13.394;2022-08-19T08:29:52;100508.44;;;22.45;81.74
51617;BME280;37697;52.588;13.394;2022-08-19T08:34:52;100516.67;;;22.51;81.82
51617;BME280;37697;52.588;13.394;2022-08-19T08:39:54;100516.67;;;22.51;81.82
51617;BME280;37697;52.588;13.394;2022-08-19T08:45:10;100522.51;;;22.52;81.64
51617;BME280;37697;52.588;13.394;2022-08-19T08:50:13;100529.69;;;22.49;81.18
51617;BME280;37697;52.588;13.394;2022-08-19T08:55:22;100525.91;;;22.55;81.49
51617;BME280;37697;52.588;13.394;2022-08-19T09:00:28;100532.37;;;22.59;81.22
51617;BME280;37697;52.588;13.394;2022-08-19T09:05:44;100529.41;;;22.69;81.21
51617;BME280;37697;52.588;13.394;2022-08-19T09:10:52;100534.03;;;22.71;81.36
51617;BME280;37697;52.588;13.394;2022-08-19T09:16:07;100537.08;;;22.76;81.30
51617;BME280;37697;52.588;13.394;2022-08-19T09:21:15;100540.11;;;22.77;81.01
51617;BME280;37697;52.588;13.394;2022-08-19T09:26:19;100536.34;;;22.86;80.83
51617;BME280;37697;52.588;13.394;2022-08-19T09:31:25;100518.87;;;23.18;80.73
51617;BME280;37697;52.588;13.394;2022-08-19T09:36:28;100510.58;;;23.72;80.87
51617;BME280;37697;52.588;13.394;2022-08-19T09:41:33;100505.04;;;23.93;79.28
51617;BME280;37697;52.588;13.394;2022-08-19T09:46:34;100511.25;;;23.96;79.42
51617;BME280;37697;52.588;13.394;2022-08-19T09:51:36;100515.68;;;23.94;79.05
51617;BME280;37697;52.588;13.394;2022-08-19T09:56:37;100509.44;;;24.09;79.08
51617;BME280;37697;52.588;13.394;2022-08-19T10:01:38;100492.14;;;24.35;78.78
51617;BME280;37697;52.588;13.394;2022-08-19T10:06:39;100499.36;;;24.51;78.32
51617;BME280;37697;52.588;13.394;2022-08-19T10:11:43;100501.00;;;24.45;77.44
51617;BME280;37697;52.588;13.394;2022-08-19T10:16:50;100507.42;;;24.41;77.24
51617;BME280;37697;52.588;13.394;2022-08-19T10:21:53;100507.84;;;24.33;77.15
51617;BME280;37697;52.588;13.394;2022-08-19T10:26:54;100505.44;;;24.20;76.83
51617;BME280;37697;52.588;13.394;2022-08-19T10:31:55;100513.88;;;24.06;76.93
51617;BME280;37697;52.588;13.394;2022-08-19T10:36:58;100505.22;;;23.98;77.20
51617;BME280;37697;52.588;13.394;2022-08-19T10:42:06;100505.05;;;24.00;77.01
51617;BME280;37697;52.588;13.394;2022-08-19T10:47:08;100502.63;;;24.06;76.88
51617;BME280;37697;52.588;13.394;2022-08-19T10:52:10;100494.19;;;24.02;76.71
51617;BME280;37697;52.588;13.394;2022-08-19T10:57:32;100496.20;;;24.06;76.49
51617;BME280;37697;52.588;13.394;2022-08-19T11:02:33;100485.94;;;24.03;76.99
51617;BME280;37697;52.588;13.394;2022-08-19T11:07:33;100487.16;;;23.88;76.74
51617;BME280;37697;52.588;13.394;2022-08-19T11:12:37;100487.16;;;23.88;76.74
51617;BME280;37697;52.588;13.394;2022-08-19T11:17:39;100507.85;;;23.93;76.72
51617;BME280;37697;52.588;13.394;2022-08-19T11:22:42;100503.42;;;23.89;76.40
51617;BME280;37697;52.588;13.394;2022-08-19T11:27:43;100501.40;;;23.82;76.27
51617;BME280;37697;52.588;13.394;2022-08-19T11:32:45;100494.33;;;23.68;76.36
51617;BME280;37697;52.588;13.394;2022-08-19T11:37:48;100511.81;;;23.78;76.36
51617;BME280;37697;52.588;13.394;2022-08-19T11:42:48;100521.03;;;23.75;76.36
51617;BME280;37697;52.588;13.394;2022-08-19T11:47:56;100517.42;;;23.71;76.13
51617;BME280;37697;52.588;13.394;2022-08-19T11:52:57;100525.64;;;23.70;76.43
51617;BME280;37697;52.588;13.394;2022-08-19T11:58:00;100529.45;;;23.68;76.23
51617;BME280;37697;52.588;13.394;2022-08-19T12:03:02;100545.14;;;23.72;76.24
51617;BME280;37697;52.588;13.394;2022-08-19T12:08:03;100548.13;;;23.66;76.06
51617;BME280;37697;52.588;13.394;2022-08-19T12:13:05;100545.73;;;23.75;76.24
51617;BME280;37697;52.588;13.394;2022-08-19T12:18:08;100541.60;;;24.00;76.50
51617;BME280;37697;52.588;13.394;2022-08-19T12:23:10;100545.61;;;24.17;76.10
51617;BME280;37697;52.588;13.394;2022-08-19T12:28:11;100553.66;;;24.22;75.42
51617;BME280;37697;52.588;13.394;2022-08-19T12:33:13;100552.85;;;24.33;74.90
51617;BME280;37697;52.588;13.394;2022-08-19T12:38:14;100548.22;;;24.52;74.72
51617;BME280;37697;52.588;13.394;2022-08-19T12:43:15;100548.18;;;24.85;74.19
51617;BME280;37697;52.588;13.394;2022-08-19T12:48:16;100552.11;;;25.16;73.47
51617;BME280;37697;52.588;13.394;2022-08-19T12:53:17;100549.05;;;25.37;72.86
51617;BME280;37697;52.588;13.394;2022-08-19T12:58:18;100549.17;;;25.56;72.61
51617;BME280;37697;52.588;13.394;2022-08-19T13:03:18;100550.96;;;25.58;71.41
51617;BME280;37697;52.588;13.394;2022-08-19T13:08:23;100551.28;;;25.70;71.56
51617;BME280;37697;52.588;13.394;2022-08-19T13:13:23;100544.00;;;25.73;71.07
51617;BME280;37697;52.588;13.394;2022-08-19T13:18:26;100538.73;;;25.82;70.62
51617;BME280;37697;52.588;13.394;2022-08-19T13:23:27;100540.62;;;26.03;70.94
51617;BME280;37697;52.588;13.394;2022-08-19T13:28:28;100553.67;;;26.35;69.98
51617;BME280;37697;52.588;13.394;2022-08-19T13:33:33;100563.55;;;26.35;69.27
51617;BME280;37697;52.588;13.394;2022-08-19T13:38:35;100554.27;;;26.35;68.39
51617;BME280;37697;52.588;13.394;2022-08-19T13:43:36;100554.70;;;26.07;67.92
51617;BME280;37697;52.588;13.394;2022-08-19T13:48:37;100551.06;;;25.77;68.24
51617;BME280;37697;52.588;13.394;2022-08-19T13:53:39;100544.69;;;25.62;68.40
51617;BME280;37697;52.588;13.394;2022-08-19T13:58:42;100548.98;;;25.51;68.48
51617;BME280;37697;52.588;13.394;2022-08-19T14:03:43;100560.12;;;25.35;68.64
51617;BME280;37697;52.588;13.394;2022-08-19T14:08:45;100547.48;;;25.17;68.66
51617;BME280;37697;52.588;13.394;2022-08-19T14:13:47;100540.09;;;25.05;69.00
51617;BME280;37697;52.588;13.394;2022-08-19T14:18:48;100532.69;;;24.95;68.87
51617;BME280;37697;52.588;13.394;2022-08-19T14:23:49;100525.64;;;24.99;69.07
51617;BME280;37697;52.588;13.394;2022-08-19T14:28:53;100527.42;;;25.05;68.92
51617;BME280;37697;52.588;13.394;2022-08-19T14:33:55;100539.06;;;25.10;68.57
51617;BME280;37697;52.588;13.394;2022-08-19T14:38:57;100540.48;;;25.07;68.62
51617;BME280;37697;52.588;13.394;2022-08-19T14:43:57;100547.58;;;24.92;68.18
51617;BME280;37697;52.588;13.394;2022-08-19T14:49:02;100556.86;;;24.78;69.00
51617;BME280;37697;52.588;13.394;2022-08-19T14:54:04;100526.34;;;24.55;69.12
51617;BME280;37697;52.588;13.394;2022-08-19T14:59:05;100546.66;;;24.55;69.16
51617;BME280;37697;52.588;13.394;2022-08-19T15:04:06;100549.02;;;24.49;69.30
51617;BME280;37697;52.588;13.394;2022-08-19T15:09:08;100546.81;;;24.45;69.19
51617;BME280;37697;52.588;13.394;2022-08-19T15:14:09;100561.69;;;24.42;69.15
51617;BME280;37697;52.588;13.394;2022-08-19T15:19:10;100570.34;;;24.36;68.98
51617;BME280;37697;52.588;13.394;2022-08-19T15:24:12;100584.60;;;24.30;69.12
51617;BME280;37697;52.588;13.394;2022-08-19T15:29:12;100595.67;;;24.25;69.13
51617;BME280;37697;52.588;13.394;2022-08-19T15:34:15;100596.46;;;24.22;69.33
51617;BME280;37697;52.588;13.394;2022-08-19T15:39:15;100597.87;;;24.22;69.57
51617;BME280;37697;52.588;13.394;2022-08-19T15:44:18;100605.50;;;24.11;69.64
51617;BME280;37697;52.588;13.394;2022-08-19T15:49:21;100617.89;;;23.84;70.28
51617;BME280;37697;52.588;13.394;2022-08-19T15:54:22;100617.89;;;23.84;70.28
51617;BME280;37697;52.588;13.394;2022-08-19T15:59:23;100623.03;;;23.75;70.44
51617;BME280;37697;52.588;13.394;2022-08-19T16:04:42;100623.02;;;23.68;70.71
51617;BME280;37697;52.588;13.394;2022-08-19T16:10:02;100617.96;;;23.57;70.88
51617;BME280;37697;52.588;13.394;2022-08-19T16:15:04;100601.86;;;23.46;71.14
51617;BME280;37697;52.588;13.394;2022-08-19T16:20:07;100617.69;;;23.41;71.37
51617;BME280;37697;52.588;13.394;2022-08-19T16:25:10;100615.22;;;23.29;71.70
51617;BME280;37697;52.588;13.394;2022-08-19T16:30:11;100601.14;;;23.22;71.91
51617;BME280;37697;52.588;13.394;2022-08-19T16:35:12;100608.77;;;23.21;72.09
51617;BME280;37697;52.588;13.394;2022-08-19T16:40:13;100604.73;;;23.19;72.18
51617;BME280;37697;52.588;13.394;2022-08-19T16:45:14;100608.36;;;23.19;72.62
51617;BME280;37697;52.588;13.394;2022-08-19T16:50:16;100613.80;;;23.25;72.69
51617;BME280;37697;52.588;13.394;2022-08-19T16:55:18;100609.21;;;23.31;72.89
51617;BME280;37697;52.588;13.394;2022-08-19T17:00:22;100620.02;;;23.25;73.74
51617;BME280;37697;52.588;13.394;2022-08-19T17:05:23;100623.59;;;23.18;73.41
51617;BME280;37697;52.588;13.394;2022-08-19T17:10:24;100630.58;;;23.11;73.29
51617;BME280;37697;52.588;13.394;2022-08-19T17:15:24;100620.45;;;23.03;73.32
51617;BME280;37697;52.588;13.394;2022-08-19T17:20:25;100615.45;;;23.02;73.85
51617;BME280;37697;52.588;13.394;2022-08-19T17:25:28;100612.80;;;22.93;73.60
51617;BME280;37697;52.588;13.394;2022-08-19T17:30:30;100619.33;;;22.83;73.96
51617;BME280;37697;52.588;13.394;2022-08-19T17:35:32;100617.08;;;22.76;74.22
51617;BME280;37697;52.588;13.394;2022-08-19T17:40:35;100621.86;;;22.71;74.39
51617;BME280;37697;52.588;13.394;2022-08-19T17:45:39;100622.55;;;22.58;74.93
51617;BME280;37697;52.588;13.394;2022-08-19T17:50:41;100621.83;;;22.44;74.88
51617;BME280;37697;52.588;13.394;2022-08-19T17:55:42;100620.15;;;22.36;75.04
51617;BME280;37697;52.588;13.394;2022-08-19T18:00:46;100634.80;;;22.22;75.14
51617;BME280;37697;52.588;13.394;2022-08-19T18:05:49;100638.56;;;22.16;75.24
51617;BME280;37697;52.588;13.394;2022-08-19T18:10:50;100649.14;;;22.13;75.49
51617;BME280;37697;52.588;13.394;2022-08-19T18:15:51;100648.69;;;22.07;75.55
51617;BME280;37697;52.588;13.394;2022-08-19T18:20:52;100647.59;;;21.99;75.65
51617;BME280;37697;52.588;13.394;2022-08-19T18:25:55;100653.30;;;21.89;75.80
51617;BME280;37697;52.588;13.394;2022-08-19T18:30:56;100663.64;;;21.85;76.10
51617;BME280;37697;52.588;13.394;2022-08-19T18:35:57;100670.65;;;21.85;76.34
51617;BME280;37697;52.588;13.394;2022-08-19T18:40:58;100673.45;;;21.85;76.27
51617;BME280;37697;52.588;13.394;2022-08-19T18:46:17;100678.17;;;21.77;76.36
51617;BME280;37697;52.588;13.394;2022-08-19T18:51:36;100681.78;;;21.77;76.46
51617;BME280;37697;52.588;13.394;2022-08-19T18:56:37;100681.95;;;21.75;76.60
51617;BME280;37697;52.588;13.394;2022-08-19T19:01:43;100700.93;;;21.72;76.84
51617;BME280;37697;52.588;13.394;2022-08-19T19:06:50;100704.29;;;21.68;76.86
51617;BME280;37697;52.588;13.394;2022-08-19T19:11:57;100709.67;;;21.67;77.05
51617;BME280;37697;52.588;13.394;2022-08-19T19:17:02;100715.03;;;21.62;77.09
51617;BME280;37697;52.588;13.394;2022-08-19T19:22:05;100717.60;;;21.61;77.37
51617;BME280;37697;52.588;13.394;2022-08-19T19:27:06;100734.97;;;21.57;77.36
51617;BME280;37697;52.588;13.394;2022-08-19T19:32:24;100729.31;;;21.53;77.54
51617;BME280;37697;52.588;13.394;2022-08-19T19:37:26;100732.31;;;21.54;77.76
51617;BME280;37697;52.588;13.394;2022-08-19T19:42:26;100734.92;;;21.53;78.53
51617;BME280;37697;52.588;13.394;2022-08-19T19:47:28;100735.89;;;21.51;78.68
51617;BME280;37697;52.588;13.394;2022-08-19T19:52:30;100749.50;;;21.53;78.60
51617;BME280;37697;52.588;13.394;2022-08-19T19:57:31;100752.30;;;21.53;78.51
51617;BME280;37697;52.588;13.394;2022-08-19T20:02:32;100747.67;;;21.51;78.56
51617;BME280;37697;52.588;13.394;2022-08-19T20:07:33;100747.25;;;21.49;78.59
51617;BME280;37697;52.588;13.394;2022-08-19T20:12:52;100751.37;;;21.45;78.57
51617;BME280;37697;52.588;13.394;2022-08-19T20:17:54;100742.73;;;21.44;78.64
51617;BME280;37697;52.588;13.394;2022-08-19T20:22:55;100749.54;;;21.43;78.57
51617;BME280;37697;52.588;13.394;2022-08-19T20:27:57;100762.52;;;21.42;78.88
51617;BME280;37697;52.588;13.394;2022-08-19T20:33:00;100754.11;;;21.42;78.87
51617;BME280;37697;52.588;13.394;2022-08-19T20:38:03;100752.29;;;21.39;78.77
51617;BME280;37697;52.588;13.394;2022-08-19T20:43:11;100746.03;;;21.36;78.82
51617;BME280;37697;52.588;13.394;2022-08-19T20:48:12;100736.55;;;21.31;78.85
51617;BME280;37697;52.588;13.394;2022-08-19T20:53:16;100736.13;;;21.29;78.86
51617;BME280;37697;52.588;13.394;2022-08-19T20:58:20;100738.13;;;21.29;79.18
51617;BME280;37697;52.588;13.394;2022-08-19T21:03:24;100736.30;;;21.27;79.14
51617;BME280;37697;52.588;13.394;2022-08-19T21:08:26;100736.62;;;21.21;79.29
51617;BME280;37697;52.588;13.394;2022-08-19T21:13:28;100736.94;;;21.16;79.37
51617;BME280;37697;52.588;13.394;2022-08-19T21:18:29;100713.45;;;21.11;79.64
51617;BME280;37697;52.588;13.394;2022-08-19T21:23:31;100704.83;;;21.10;79.92
51617;BME280;37697;52.588;13.394;2022-08-19T21:28:31;100712.37;;;21.06;80.06
51617;BME280;37697;52.588;13.394;2022-08-19T21:33:32;100714.94;;;21.05;80.20
51617;BME280;37697;52.588;13.394;2022-08-19T21:38:33;100744.56;;;21.06;80.29
51617;BME280;37697;52.588;13.394;2022-08-19T21:43:35;100758.19;;;21.08;80.42
51617;BME280;37697;52.588;13.394;2022-08-19T21:48:38;100761.19;;;21.09;80.51
51617;BME280;37697;52.588;13.394;2022-08-19T21:53:39;100760.25;;;21.11;80.57
51617;BME280;37697;52.588;13.394;2022-08-19T21:58:40;100757.65;;;21.12;80.53
51617;BME280;37697;52.588;13.394;2022-08-19T22:03:41;100747.05;;;21.11;80.58
51617;BME280;37697;52.588;13.394;2022-08-19T22:08:42;100747.65;;;21.11;80.62
51617;BME280;37697;52.588;13.394;2022-08-19T22:13:44;100748.02;;;21.09;80.63
51617;BME280;37697;52.588;13.394;2022-08-19T22:18:45;100755.82;;;21.10;80.88
51617;BME280;37697;52.588;13.394;2022-08-19T22:23:46;100738.80;;;21.09;80.87
51617;BME280;37697;52.588;13.394;2022-08-19T22:28:47;100738.17;;;21.06;80.88
51617;BME280;37697;52.588;13.394;2022-08-19T22:33:48;100712.91;;;21.02;80.89
51617;BME280;37697;52.588;13.394;2022-08-19T22:38:51;100700.09;;;21.01;81.13
51617;BME280;37697;52.588;13.394;2022-08-19T22:43:53;100713.86;;;21.00;81.22
51617;BME280;37697;52.588;13.394;2022-08-19T22:48:54;100723.66;;;21.00;81.23
51617;BME280;37697;52.588;13.394;2022-08-19T22:53:55;100743.84;;;20.99;81.28
51617;BME280;37697;52.588;13.394;2022-08-19T22:58:56;100742.19;;;20.95;81.04
51617;BME280;37697;52.588;13.394;2022-08-19T23:03:58;100728.34;;;20.92;81.34
51617;BME280;37697;52.588;13.394;2022-08-19T23:09:00;100730.34;;;20.92;81.29
51617;BME280;37697;52.588;13.394;2022-08-19T23:14:04;100718.54;;;20.92;81.42
51617;BME280;37697;52.588;13.394;2022-08-19T23:19:05;100699.92;;;20.90;81.39
51617;BME280;37697;52.588;13.394;2022-08-19T23:24:07;100719.14;;;20.92;81.52
51617;BME280;37697;52.588;13.394;2022-08-19T23:29:08;100722.73;;;20.92;81.52
51617;BME280;37697;52.588;13.394;2022-08-19T23:34:27;100720.05;;;20.86;81.45
51617;BME280;37697;52.588;13.394;2022-08-19T23:39:28;100742.15;;;20.81;81.62
51617;BME280;37697;52.588;13.394;2022-08-19T23:44:29;100744.28;;;20.78;81.66
51617;BME280;37697;52.588;13.394;2022-08-19T23:49:30;100747.45;;;20.77;81.77
51617;BME280;37697;52.588;13.394;2022-08-19T23:54:30;100741.97;;;20.71;81.82
51617;BME280;37697;52.588;13.394;2022-08-19T23:59:31;100725.37;;;20.72;82.08
